This demonstration page uses our WeatherBlox Daily Observations layout. Learn more.

38.89511, -77.03637

Hourly Observations for July 24, 2017

Temp ( °F °C ) Dew Point ( °F °C ) Humidity (%) Winds ( mph kmh ) Pressure ( in mb ) Visibility ( mi km ) Precip ( " mm )
12:25 am 00:25 Cloudy 76 24.4 74 23.3 94 94 N 12 19 29.77 1008 10 16.09344 0.001 0.001
12:52 am 00:52 Cloudy 76 24.4 73 22.8 91 91 NE 10 17 29.74 1007 10 16.09344 0.001 0.001
1:25 am 01:25 Partly Cloudy 75 23.9 73 22.8 94 94 ENE 5 7 29.74 1007 10 16.09344 0 0
1:52 am 01:52 Mostly Cloudy 74 23.3 72 22.2 94 94 N 5 7 29.74 1007 10 16.09344 0 0
2:52 am 02:52 Mostly Cloudy 77 25 74 23.3 90 90 SSW 8 13 29.74 1007 10 16.09344 0 0
3:52 am 03:52 Mostly Cloudy 76 24.4 73 22.8 91 91 SW 5 7 29.71 1006 10 16.09344 0 0
4:52 am 04:52 Cloudy 76 24.4 73 22.8 91 91 SSW 6 9 29.71 1006 10 16.09344 0 0
5:52 am 05:52 Mostly Cloudy 78 25.6 72 22.2 82 82 W 3 6 29.71 1006 10 16.09344 0 0
6:52 am 06:52 Mostly Cloudy with Light Rain 77 25 73 22.8 88 88 SSW 8 13 29.77 1008 10 16.09344 0.001 0.001
7:52 am 07:52 Mostly Cloudy 78 25.6 73 22.8 85 85 WSW 6 9 29.8 1009 10 16.09344 0.001 0.001
8:52 am 08:52 Mostly Cloudy 81 27.2 71 21.7 72 72 N 8 13 29.83 1010 10 16.09344 0 0
9:52 am 09:52 Mostly Cloudy 82 27.8 71 21.7 69 69 NNW 12 19 29.8 1009 10 16.09344 0 0
10:52 am 10:52 Partly Cloudy 85 29.4 69 20.6 59 59 NW 9 15 29.83 1010 10 16.09344 0 0
11:52 am 11:52 Partly Cloudy 86 30 69 20.6 57 57 N 12 19 29.83 1010 10 16.09344 0 0
12:52 pm 12:52 Mostly Cloudy 87 30.6 70 21.1 57 57 NE 6 9 29.83 1010 10 16.09344 0 0
1:52 pm 13:52 Partly Cloudy 90 32.2 69 20.6 50 50 N 6 9 29.83 1010 10 16.09344 0 0
2:52 pm 14:52 Partly Cloudy 89 31.7 68 20 50 50 N 10 17 29.8 1009 10 16.09344 0 0
3:52 pm 15:52 Mostly Cloudy 90 32.2 67 19.4 47 47 Calm 29.8 1009 10 16.09344 0 0
4:52 pm 16:52 Mostly Cloudy 88 31.1 73 22.8 61 61 S 12 19 29.8 1009 10 16.09344 0 0
5:52 pm 17:52 Mostly Cloudy 85 29.4 75 23.9 72 72 SW 7 11 29.8 1009 10 16.09344 0.001 0.001
6:52 pm 18:52 Mostly Cloudy 85 29.4 76 24.4 75 75 S 7 11 29.8 1009 10 16.09344 0 0
7:52 pm 19:52 Partly Cloudy 85 29.4 75 23.9 72 72 S 7 11 29.8 1009 10 16.09344 0 0
8:52 pm 20:52 Mostly Cloudy 85 29.4 75 23.9 72 72 SSW 8 13 29.8 1009 10 16.09344 0 0
9:52 pm 21:52 Mostly Cloudy 85 29.4 74 23.3 70 70 W 7 11 29.85 1011 10 16.09344 0 0
10:52 pm 22:52 Mostly Cloudy 83 28.3 71 21.7 67 67 NW 15 24 29.85 1011 10 16.09344 0 0
11:52 pm 23:52 Mostly Cloudy 81 27.2 70 21.1 69 69 NNW 13 20 29.88 1012 10 16.09344 0 0

Powered by AerisWeather